sensor_id;sensor_type;location;lat;lon;timestamp;P1;durP1;ratioP1;P2;durP2;ratioP2
53915;SDS011;39827;49.652;18.770;2023-03-11T00:02:09;922.65;;;851.72;;
53915;SDS011;39827;49.652;18.770;2023-03-11T00:04:34;938.80;;;865.45;;
53915;SDS011;39827;49.652;18.770;2023-03-11T00:07:00;955.20;;;877.25;;
53915;SDS011;39827;49.652;18.770;2023-03-11T00:09:29;923.67;;;846.03;;
53915;SDS011;39827;49.652;18.770;2023-03-11T00:11:54;889.63;;;816.90;;
53915;SDS011;39827;49.652;18.770;2023-03-11T00:14:20;787.10;;;723.35;;
53915;SDS011;39827;49.652;18.770;2023-03-11T00:16:45;729.67;;;669.15;;
53915;SDS011;39827;49.652;18.770;2023-03-11T00:19:10;704.05;;;647.20;;
53915;SDS011;39827;49.652;18.770;2023-03-11T00:21:36;880.92;;;808.10;;
53915;SDS011;39827;49.652;18.770;2023-03-11T00:24:01;810.80;;;745.15;;
53915;SDS011;39827;49.652;18.770;2023-03-11T00:26:27;743.17;;;683.42;;
53915;SDS011;39827;49.652;18.770;2023-03-11T00:28:53;671.03;;;614.78;;
53915;SDS011;39827;49.652;18.770;2023-03-11T00:31:19;666.58;;;612.33;;
53915;SDS011;39827;49.652;18.770;2023-03-11T00:33:45;665.13;;;610.45;;
53915;SDS011;39827;49.652;18.770;2023-03-11T00:36:21;725.70;;;666.72;;
53915;SDS011;39827;49.652;18.770;2023-03-11T00:38:58;775.10;;;713.60;;
53915;SDS011;39827;49.652;18.770;2023-03-11T00:41:26;835.92;;;767.97;;
53915;SDS011;39827;49.652;18.770;2023-03-11T00:43:52;958.63;;;882.15;;
53915;SDS011;39827;49.652;18.770;2023-03-11T00:46:17;992.53;;;911.60;;
53915;SDS011;39827;49.652;18.770;2023-03-11T00:48:43;1034.20;;;946.80;;
53915;SDS011;39827;49.652;18.770;2023-03-11T00:51:14;1042.25;;;951.95;;
53915;SDS011;39827;49.652;18.770;2023-03-11T00:53:40;1036.15;;;946.83;;
53915;SDS011;39827;49.652;18.770;2023-03-11T00:56:10;1055.90;;;964.70;;
53915;SDS011;39827;49.652;18.770;2023-03-11T00:58:37;939.95;;;866.88;;
53915;SDS011;39827;49.652;18.770;2023-03-11T01:01:06;1047.15;;;956.92;;
53915;SDS011;39827;49.652;18.770;2023-03-11T01:03:36;820.40;;;758.47;;
53915;SDS011;39827;49.652;18.770;2023-03-11T01:06:03;879.55;;;814.03;;
53915;SDS011;39827;49.652;18.770;2023-03-11T01:08:29;836.08;;;771.33;;
53915;SDS011;39827;49.652;18.770;2023-03-11T01:10:55;941.92;;;865.83;;
53915;SDS011;39827;49.652;18.770;2023-03-11T01:13:22;946.00;;;867.95;;
53915;SDS011;39827;49.652;18.770;2023-03-11T01:15:47;949.00;;;871.50;;
53915;SDS011;39827;49.652;18.770;2023-03-11T01:18:13;848.38;;;784.63;;
53915;SDS011;39827;49.652;18.770;2023-03-11T01:20:39;839.05;;;776.33;;
53915;SDS011;39827;49.652;18.770;2023-03-11T01:23:05;844.95;;;780.60;;
53915;SDS011;39827;49.652;18.770;2023-03-11T01:25:31;822.45;;;760.78;;
53915;SDS011;39827;49.652;18.770;2023-03-11T01:27:57;923.38;;;847.58;;
53915;SDS011;39827;49.652;18.770;2023-03-11T01:30:23;806.90;;;747.05;;
53915;SDS011;39827;49.652;18.770;2023-03-11T01:32:49;887.15;;;817.95;;
53915;SDS011;39827;49.652;18.770;2023-03-11T01:35:17;913.03;;;839.72;;
53915;SDS011;39827;49.652;18.770;2023-03-11T01:37:44;920.40;;;845.30;;
53915;SDS011;39827;49.652;18.770;2023-03-11T01:40:21;870.63;;;802.65;;
53915;SDS011;39827;49.652;18.770;2023-03-11T01:42:52;859.80;;;792.58;;
53915;SDS011;39827;49.652;18.770;2023-03-11T01:48:11;850.13;;;783.97;;
53915;SDS011;39827;49.652;18.770;2023-03-11T01:50:41;819.67;;;757.47;;
53915;SDS011;39827;49.652;18.770;2023-03-11T01:53:09;776.70;;;719.72;;
53915;SDS011;39827;49.652;18.770;2023-03-11T01:55:35;873.67;;;805.50;;
53915;SDS011;39827;49.652;18.770;2023-03-11T01:58:01;791.13;;;731.83;;
53915;SDS011;39827;49.652;18.770;2023-03-11T02:00:30;896.80;;;825.45;;
53915;SDS011;39827;49.652;18.770;2023-03-11T02:02:56;973.88;;;889.90;;
53915;SDS011;39827;49.652;18.770;2023-03-11T02:05:25;822.28;;;760.67;;
53915;SDS011;39827;49.652;18.770;2023-03-11T02:07:51;906.83;;;834.17;;
53915;SDS011;39827;49.652;18.770;2023-03-11T02:10:19;911.05;;;838.70;;
53915;SDS011;39827;49.652;18.770;2023-03-11T02:12:45;853.58;;;788.95;;
53915;SDS011;39827;49.652;18.770;2023-03-11T02:15:12;825.95;;;764.10;;
53915;SDS011;39827;49.652;18.770;2023-03-11T02:17:39;824.85;;;763.10;;
53915;SDS011;39827;49.652;18.770;2023-03-11T02:20:10;848.80;;;784.70;;
53915;SDS011;39827;49.652;18.770;2023-03-11T02:23:13;811.60;;;751.08;;
53915;SDS011;39827;49.652;18.770;2023-03-11T02:28:11;918.17;;;843.58;;
53915;SDS011;39827;49.652;18.770;2023-03-11T02:30:40;929.80;;;853.45;;
53915;SDS011;39827;49.652;18.770;2023-03-11T02:33:08;963.03;;;882.55;;
53915;SDS011;39827;49.652;18.770;2023-03-11T02:35:34;949.08;;;868.88;;
53915;SDS011;39827;49.652;18.770;2023-03-11T02:38:00;950.40;;;872.10;;
53915;SDS011;39827;49.652;18.770;2023-03-11T02:42:54;964.17;;;883.00;;
53915;SDS011;39827;49.652;18.770;2023-03-11T02:45:23;977.45;;;893.95;;
53915;SDS011;39827;49.652;18.770;2023-03-11T02:47:50;973.05;;;891.53;;
53915;SDS011;39827;49.652;18.770;2023-03-11T02:50:18;954.60;;;874.60;;
53915;SDS011;39827;49.652;18.770;2023-03-11T02:52:46;969.00;;;889.47;;
53915;SDS011;39827;49.652;18.770;2023-03-11T02:55:13;984.63;;;899.60;;
53915;SDS011;39827;49.652;18.770;2023-03-11T02:57:40;943.40;;;863.35;;
53915;SDS011;39827;49.652;18.770;2023-03-11T03:00:07;960.33;;;879.10;;
53915;SDS011;39827;49.652;18.770;2023-03-11T03:02:37;983.55;;;900.60;;
53915;SDS011;39827;49.652;18.770;2023-03-11T03:05:03;965.20;;;885.30;;
53915;SDS011;39827;49.652;18.770;2023-03-11T03:07:28;927.17;;;852.33;;
53915;SDS011;39827;49.652;18.770;2023-03-11T03:09:54;940.55;;;863.33;;
53915;SDS011;39827;49.652;18.770;2023-03-11T03:12:19;918.85;;;844.40;;
53915;SDS011;39827;49.652;18.770;2023-03-11T03:14:45;931.15;;;855.00;;
53915;SDS011;39827;49.652;18.770;2023-03-11T03:17:10;937.28;;;859.40;;
53915;SDS011;39827;49.652;18.770;2023-03-11T03:19:35;922.50;;;846.75;;
53915;SDS011;39827;49.652;18.770;2023-03-11T03:22:01;883.33;;;810.40;;
53915;SDS011;39827;49.652;18.770;2023-03-11T03:24:26;947.97;;;866.75;;
53915;SDS011;39827;49.652;18.770;2023-03-11T03:26:51;962.10;;;879.20;;
53915;SDS011;39827;49.652;18.770;2023-03-11T03:29:17;953.60;;;873.22;;
53915;SDS011;39827;49.652;18.770;2023-03-11T03:31:42;974.15;;;891.63;;
53915;SDS011;39827;49.652;18.770;2023-03-11T03:34:08;983.20;;;898.55;;
53915;SDS011;39827;49.652;18.770;2023-03-11T03:36:33;962.53;;;880.42;;
53915;SDS011;39827;49.652;18.770;2023-03-11T03:38:59;961.17;;;879.90;;
53915;SDS011;39827;49.652;18.770;2023-03-11T03:41:25;962.75;;;881.72;;
53915;SDS011;39827;49.652;18.770;2023-03-11T03:43:51;958.40;;;877.17;;
53915;SDS011;39827;49.652;18.770;2023-03-11T03:46:17;981.95;;;899.55;;
53915;SDS011;39827;49.652;18.770;2023-03-11T03:48:43;929.90;;;853.63;;
53915;SDS011;39827;49.652;18.770;2023-03-11T03:51:10;955.92;;;874.75;;
53915;SDS011;39827;49.652;18.770;2023-03-11T03:53:36;968.83;;;886.40;;
53915;SDS011;39827;49.652;18.770;2023-03-11T03:56:05;958.60;;;877.53;;
53915;SDS011;39827;49.652;18.770;2023-03-11T03:58:32;978.08;;;894.80;;
53915;SDS011;39827;49.652;18.770;2023-03-11T04:00:58;978.40;;;895.13;;
53915;SDS011;39827;49.652;18.770;2023-03-11T04:03:25;955.25;;;876.25;;
53915;SDS011;39827;49.652;18.770;2023-03-11T04:05:51;959.80;;;881.03;;
53915;SDS011;39827;49.652;18.770;2023-03-11T04:08:17;983.45;;;897.90;;
53915;SDS011;39827;49.652;18.770;2023-03-11T04:10:43;946.13;;;867.97;;
53915;SDS011;39827;49.652;18.770;2023-03-11T04:13:09;959.92;;;880.92;;
53915;SDS011;39827;49.652;18.770;2023-03-11T04:15:36;986.13;;;902.25;;
53915;SDS011;39827;49.652;18.770;2023-03-11T04:18:03;989.70;;;904.67;;
53915;SDS011;39827;49.652;18.770;2023-03-11T04:20:28;910.63;;;838.78;;
53915;SDS011;39827;49.652;18.770;2023-03-11T04:22:54;955.95;;;876.38;;
53915;SDS011;39827;49.652;18.770;2023-03-11T04:25:19;916.60;;;843.08;;
53915;SDS011;39827;49.652;18.770;2023-03-11T04:27:44;922.63;;;849.08;;
53915;SDS011;39827;49.652;18.770;2023-03-11T04:30:13;937.78;;;861.65;;
53915;SDS011;39827;49.652;18.770;2023-03-11T04:32:39;907.97;;;834.72;;
53915;SDS011;39827;49.652;18.770;2023-03-11T04:35:05;886.50;;;818.88;;
53915;SDS011;39827;49.652;18.770;2023-03-11T04:37:30;891.95;;;823.88;;
53915;SDS011;39827;49.652;18.770;2023-03-11T04:39:56;868.33;;;803.67;;
53915;SDS011;39827;49.652;18.770;2023-03-11T04:42:21;914.80;;;843.90;;
53915;SDS011;39827;49.652;18.770;2023-03-11T04:44:46;948.53;;;871.40;;
53915;SDS011;39827;49.652;18.770;2023-03-11T04:47:12;897.40;;;824.20;;
53915;SDS011;39827;49.652;18.770;2023-03-11T04:49:37;861.10;;;792.67;;
53915;SDS011;39827;49.652;18.770;2023-03-11T04:52:03;806.67;;;742.45;;
53915;SDS011;39827;49.652;18.770;2023-03-11T04:54:28;811.45;;;743.42;;
53915;SDS011;39827;49.652;18.770;2023-03-11T04:56:54;775.10;;;713.28;;
53915;SDS011;39827;49.652;18.770;2023-03-11T04:59:19;792.47;;;730.53;;
53915;SDS011;39827;49.652;18.770;2023-03-11T05:01:44;797.28;;;735.15;;
53915;SDS011;39827;49.652;18.770;2023-03-11T05:04:10;870.58;;;769.17;;
53915;SDS011;39827;49.652;18.770;2023-03-11T05:06:36;822.80;;;759.78;;
53915;SDS011;39827;49.652;18.770;2023-03-11T05:09:02;830.38;;;766.17;;
53915;SDS011;39827;49.652;18.770;2023-03-11T05:11:28;810.15;;;747.28;;
53915;SDS011;39827;49.652;18.770;2023-03-11T05:13:54;874.65;;;808.20;;
53915;SDS011;39827;49.652;18.770;2023-03-11T05:16:19;840.40;;;773.83;;
53915;SDS011;39827;49.652;18.770;2023-03-11T05:18:45;782.85;;;724.00;;
53915;SDS011;39827;49.652;18.770;2023-03-11T05:21:10;739.97;;;685.95;;
53915;SDS011;39827;49.652;18.770;2023-03-11T05:23:35;768.70;;;711.95;;
53915;SDS011;39827;49.652;18.770;2023-03-11T05:26:01;740.95;;;684.20;;
53915;SDS011;39827;49.652;18.770;2023-03-11T05:28:26;798.67;;;735.88;;
53915;SDS011;39827;49.652;18.770;2023-03-11T05:30:52;741.22;;;687.50;;
53915;SDS011;39827;49.652;18.770;2023-03-11T05:33:17;745.70;;;691.55;;
53915;SDS011;39827;49.652;18.770;2023-03-11T05:35:43;835.85;;;774.95;;
53915;SDS011;39827;49.652;18.770;2023-03-11T05:38:08;879.70;;;815.30;;
53915;SDS011;39827;49.652;18.770;2023-03-11T05:40:33;809.47;;;751.72;;
53915;SDS011;39827;49.652;18.770;2023-03-11T05:42:59;824.47;;;761.70;;
53915;SDS011;39827;49.652;18.770;2023-03-11T05:45:24;814.85;;;757.05;;
53915;SDS011;39827;49.652;18.770;2023-03-11T05:47:52;829.10;;;768.85;;
53915;SDS011;39827;49.652;18.770;2023-03-11T05:50:18;903.65;;;837.60;;
53915;SDS011;39827;49.652;18.770;2023-03-11T05:52:43;773.75;;;720.15;;
53915;SDS011;39827;49.652;18.770;2023-03-11T05:55:09;826.50;;;767.42;;
53915;SDS011;39827;49.652;18.770;2023-03-11T05:57:36;823.55;;;765.30;;
53915;SDS011;39827;49.652;18.770;2023-03-11T06:00:04;716.30;;;666.80;;
53915;SDS011;39827;49.652;18.770;2023-03-11T06:02:31;639.60;;;595.50;;
53915;SDS011;39827;49.652;18.770;2023-03-11T06:04:56;725.72;;;673.88;;
53915;SDS011;39827;49.652;18.770;2023-03-11T06:07:22;783.17;;;729.28;;
53915;SDS011;39827;49.652;18.770;2023-03-11T06:09:48;813.28;;;756.30;;
53915;SDS011;39827;49.652;18.770;2023-03-11T06:12:14;769.28;;;715.38;;
53915;SDS011;39827;49.652;18.770;2023-03-11T06:14:39;911.85;;;845.90;;
53915;SDS011;39827;49.652;18.770;2023-03-11T06:17:05;913.85;;;847.17;;
53915;SDS011;39827;49.652;18.770;2023-03-11T06:19:30;861.40;;;799.92;;
53915;SDS011;39827;49.652;18.770;2023-03-11T06:21:56;815.53;;;759.05;;
53915;SDS011;39827;49.652;18.770;2023-03-11T06:24:21;861.78;;;800.53;;
53915;SDS011;39827;49.652;18.770;2023-03-11T06:26:49;865.80;;;804.20;;
53915;SDS011;39827;49.652;18.770;2023-03-11T06:29:16;794.45;;;738.35;;
53915;SDS011;39827;49.652;18.770;2023-03-11T06:31:41;784.63;;;730.03;;
53915;SDS011;39827;49.652;18.770;2023-03-11T06:34:07;799.83;;;744.45;;
53915;SDS011;39827;49.652;18.770;2023-03-11T06:36:34;755.95;;;703.17;;
53915;SDS011;39827;49.652;18.770;2023-03-11T06:38:59;799.85;;;743.90;;
53915;SDS011;39827;49.652;18.770;2023-03-11T06:41:24;673.58;;;626.35;;
53915;SDS011;39827;49.652;18.770;2023-03-11T06:43:50;738.85;;;687.88;;
53915;SDS011;39827;49.652;18.770;2023-03-11T06:46:19;758.92;;;706.08;;
53915;SDS011;39827;49.652;18.770;2023-03-11T06:48:47;848.90;;;787.38;;
53915;SDS011;39827;49.652;18.770;2023-03-11T06:51:16;833.10;;;772.78;;
53915;SDS011;39827;49.652;18.770;2023-03-11T06:53:42;725.58;;;674.13;;
53915;SDS011;39827;49.652;18.770;2023-03-11T06:56:08;826.35;;;767.97;;
53915;SDS011;39827;49.652;18.770;2023-03-11T06:58:36;779.25;;;722.58;;
53915;SDS011;39827;49.652;18.770;2023-03-11T07:01:04;716.05;;;665.08;;
53915;SDS011;39827;49.652;18.770;2023-03-11T07:03:31;774.45;;;718.60;;
53915;SDS011;39827;49.652;18.770;2023-03-11T07:05:57;778.90;;;722.75;;
53915;SDS011;39827;49.652;18.770;2023-03-11T07:08:23;811.15;;;753.47;;
53915;SDS011;39827;49.652;18.770;2023-03-11T07:11:06;792.63;;;736.75;;
53915;SDS011;39827;49.652;18.770;2023-03-11T07:13:33;623.90;;;580.17;;
53915;SDS011;39827;49.652;18.770;2023-03-11T07:16:07;872.50;;;809.17;;
53915;SDS011;39827;49.652;18.770;2023-03-11T07:18:37;888.42;;;823.17;;
53915;SDS011;39827;49.652;18.770;2023-03-11T07:21:03;881.10;;;816.67;;
53915;SDS011;39827;49.652;18.770;2023-03-11T07:23:30;871.50;;;808.63;;
53915;SDS011;39827;49.652;18.770;2023-03-11T07:25:55;809.67;;;750.47;;
53915;SDS011;39827;49.652;18.770;2023-03-11T07:28:21;704.22;;;653.08;;
53915;SDS011;39827;49.652;18.770;2023-03-11T07:30:47;828.15;;;767.90;;
53915;SDS011;39827;49.652;18.770;2023-03-11T07:33:13;887.85;;;822.58;;
53915;SDS011;39827;49.652;18.770;2023-03-11T07:35:38;825.85;;;766.50;;
53915;SDS011;39827;49.652;18.770;2023-03-11T07:38:04;930.30;;;860.50;;
53915;SDS011;39827;49.652;18.770;2023-03-11T07:40:29;912.88;;;844.67;;
53915;SDS011;39827;49.652;18.770;2023-03-11T07:42:55;849.08;;;787.13;;
53915;SDS011;39827;49.652;18.770;2023-03-11T07:45:20;828.30;;;768.88;;
53915;SDS011;39827;49.652;18.770;2023-03-11T07:47:45;808.72;;;749.85;;
53915;SDS011;39827;49.652;18.770;2023-03-11T07:50:11;761.97;;;705.33;;
53915;SDS011;39827;49.652;18.770;2023-03-11T07:52:36;812.42;;;751.90;;
53915;SDS011;39827;49.652;18.770;2023-03-11T07:55:02;711.28;;;658.72;;
53915;SDS011;39827;49.652;18.770;2023-03-11T07:57:28;759.80;;;705.33;;
53915;SDS011;39827;49.652;18.770;2023-03-11T07:59:53;666.53;;;617.63;;
53915;SDS011;39827;49.652;18.770;2023-03-11T08:02:18;825.08;;;762.25;;
53915;SDS011;39827;49.652;18.770;2023-03-11T08:04:44;716.53;;;663.10;;
53915;SDS011;39827;49.652;18.770;2023-03-11T08:07:09;732.55;;;677.17;;
53915;SDS011;39827;49.652;18.770;2023-03-11T08:09:35;766.33;;;709.40;;
53915;SDS011;39827;49.652;18.770;2023-03-11T08:12:00;798.55;;;741.30;;
53915;SDS011;39827;49.652;18.770;2023-03-11T08:14:26;850.20;;;787.75;;
53915;SDS011;39827;49.652;18.770;2023-03-11T08:16:51;817.05;;;754.88;;
53915;SDS011;39827;49.652;18.770;2023-03-11T08:19:17;825.53;;;760.47;;
53915;SDS011;39827;49.652;18.770;2023-03-11T08:21:42;884.53;;;816.58;;
53915;SDS011;39827;49.652;18.770;2023-03-11T08:24:11;876.42;;;811.90;;
53915;SDS011;39827;49.652;18.770;2023-03-11T08:26:38;826.80;;;765.60;;
53915;SDS011;39827;49.652;18.770;2023-03-11T08:29:07;886.10;;;815.95;;
53915;SDS011;39827;49.652;18.770;2023-03-11T08:31:32;867.22;;;795.17;;
53915;SDS011;39827;49.652;18.770;2023-03-11T08:34:02;910.15;;;835.10;;
53915;SDS011;39827;49.652;18.770;2023-03-11T08:36:30;965.03;;;883.47;;
53915;SDS011;39827;49.652;18.770;2023-03-11T08:38:56;906.70;;;838.63;;
53915;SDS011;39827;49.652;18.770;2023-03-11T08:41:21;883.17;;;818.45;;
53915;SDS011;39827;49.652;18.770;2023-03-11T08:43:47;948.30;;;876.15;;
53915;SDS011;39827;49.652;18.770;2023-03-11T08:46:14;905.97;;;838.00;;
53915;SDS011;39827;49.652;18.770;2023-03-11T08:48:55;816.03;;;754.78;;
53915;SDS011;39827;49.652;18.770;2023-03-11T08:51:21;814.88;;;753.20;;
53915;SDS011;39827;49.652;18.770;2023-03-11T08:53:48;949.17;;;876.60;;
53915;SDS011;39827;49.652;18.770;2023-03-11T08:56:13;784.85;;;726.22;;
53915;SDS011;39827;49.652;18.770;2023-03-11T08:58:39;793.33;;;734.22;;
53915;SDS011;39827;49.652;18.770;2023-03-11T09:01:04;777.60;;;722.28;;
53915;SDS011;39827;49.652;18.770;2023-03-11T09:03:31;809.25;;;752.00;;
53915;SDS011;39827;49.652;18.770;2023-03-11T09:05:58;714.35;;;662.45;;
53915;SDS011;39827;49.652;18.770;2023-03-11T09:08:25;661.92;;;613.75;;
53915;SDS011;39827;49.652;18.770;2023-03-11T09:10:51;769.92;;;714.25;;
53915;SDS011;39827;49.652;18.770;2023-03-11T09:13:16;731.65;;;678.10;;
53915;SDS011;39827;49.652;18.770;2023-03-11T09:15:42;622.70;;;577.95;;
53915;SDS011;39827;49.652;18.770;2023-03-11T09:18:10;791.88;;;731.83;;
53915;SDS011;39827;49.652;18.770;2023-03-11T09:20:37;864.72;;;801.38;;
53915;SDS011;39827;49.652;18.770;2023-03-11T09:23:03;840.80;;;779.28;;
53915;SDS011;39827;49.652;18.770;2023-03-11T09:25:29;819.40;;;756.38;;
53915;SDS011;39827;49.652;18.770;2023-03-11T09:27:54;851.10;;;788.72;;
53915;SDS011;39827;49.652;18.770;2023-03-11T09:30:20;799.67;;;739.03;;
53915;SDS011;39827;49.652;18.770;2023-03-11T09:32:45;684.78;;;631.78;;
53915;SDS011;39827;49.652;18.770;2023-03-11T09:35:11;562.78;;;518.28;;
53915;SDS011;39827;49.652;18.770;2023-03-11T09:37:36;536.67;;;494.70;;
53915;SDS011;39827;49.652;18.770;2023-03-11T09:40:02;513.42;;;474.02;;
53915;SDS011;39827;49.652;18.770;2023-03-11T09:48:13;445.42;;;410.52;;
53915;SDS011;39827;49.652;18.770;2023-03-11T09:51:04;502.92;;;464.63;;
53915;SDS011;39827;49.652;18.770;2023-03-11T09:53:40;535.13;;;492.10;;
53915;SDS011;39827;49.652;18.770;2023-03-11T09:56:08;514.05;;;474.20;;
53915;SDS011;39827;49.652;18.770;2023-03-11T10:01:13;525.97;;;484.13;;
53915;SDS011;39827;49.652;18.770;2023-03-11T10:03:42;643.47;;;582.83;;
53915;SDS011;39827;49.652;18.770;2023-03-11T10:06:14;569.53;;;525.08;;
53915;SDS011;39827;49.652;18.770;2023-03-11T10:11:20;516.20;;;475.63;;
53915;SDS011;39827;49.652;18.770;2023-03-11T10:25:13;423.67;;;389.83;;
53915;SDS011;39827;49.652;18.770;2023-03-11T10:27:45;401.70;;;370.25;;
53915;SDS011;39827;49.652;18.770;2023-03-11T10:32:47;368.92;;;340.17;;
53915;SDS011;39827;49.652;18.770;2023-03-11T10:35:20;405.38;;;372.88;;
53915;SDS011;39827;49.652;18.770;2023-03-11T10:37:57;397.95;;;366.48;;
53915;SDS011;39827;49.652;18.770;2023-03-11T10:40:31;449.92;;;411.70;;
53915;SDS011;39827;49.652;18.770;2023-03-11T10:45:27;352.30;;;325.27;;
53915;SDS011;39827;49.652;18.770;2023-03-11T10:48:10;403.67;;;369.92;;
53915;SDS011;39827;49.652;18.770;2023-03-11T10:50:41;780.65;;;672.72;;
53915;SDS011;39827;49.652;18.770;2023-03-11T10:53:17;484.40;;;443.85;;
53915;SDS011;39827;49.652;18.770;2023-03-11T10:55:45;500.92;;;452.17;;
53915;SDS011;39827;49.652;18.770;2023-03-11T10:58:15;466.58;;;428.13;;
53915;SDS011;39827;49.652;18.770;2023-03-11T11:00:42;492.10;;;450.92;;
53915;SDS011;39827;49.652;18.770;2023-03-11T11:03:26;491.38;;;450.70;;
53915;SDS011;39827;49.652;18.770;2023-03-11T11:05:57;456.38;;;419.60;;
53915;SDS011;39827;49.652;18.770;2023-03-11T11:08:24;963.72;;;737.50;;
53915;SDS011;39827;49.652;18.770;2023-03-11T11:10:54;581.90;;;526.83;;
53915;SDS011;39827;49.652;18.770;2023-03-11T11:13:25;867.80;;;661.97;;
53915;SDS011;39827;49.652;18.770;2023-03-11T11:15:58;475.55;;;437.05;;
53915;SDS011;39827;49.652;18.770;2023-03-11T11:18:27;438.92;;;402.90;;
53915;SDS011;39827;49.652;18.770;2023-03-11T11:23:48;403.63;;;373.08;;
53915;SDS011;39827;49.652;18.770;2023-03-11T11:26:21;472.88;;;435.95;;
53915;SDS011;39827;49.652;18.770;2023-03-11T11:31:36;483.45;;;444.00;;
53915;SDS011;39827;49.652;18.770;2023-03-11T11:34:03;512.80;;;472.70;;
53915;SDS011;39827;49.652;18.770;2023-03-11T11:36:31;484.98;;;445.05;;
53915;SDS011;39827;49.652;18.770;2023-03-11T11:39:00;483.45;;;442.20;;
53915;SDS011;39827;49.652;18.770;2023-03-11T11:41:29;504.00;;;463.65;;
53915;SDS011;39827;49.652;18.770;2023-03-11T11:44:00;469.38;;;431.85;;
53915;SDS011;39827;49.652;18.770;2023-03-11T11:46:32;457.58;;;421.80;;
53915;SDS011;39827;49.652;18.770;2023-03-11T11:49:21;449.25;;;412.80;;
53915;SDS011;39827;49.652;18.770;2023-03-11T11:57:22;378.75;;;349.50;;
53915;SDS011;39827;49.652;18.770;2023-03-11T11:59:48;354.52;;;326.67;;
53915;SDS011;39827;49.652;18.770;2023-03-11T12:02:18;437.23;;;402.10;;
53915;SDS011;39827;49.652;18.770;2023-03-11T12:26:52;504.40;;;463.25;;
53915;SDS011;39827;49.652;18.770;2023-03-11T12:29:24;466.65;;;427.67;;
53915;SDS011;39827;49.652;18.770;2023-03-11T12:31:53;494.05;;;452.95;;
53915;SDS011;39827;49.652;18.770;2023-03-11T12:34:21;531.05;;;487.10;;
53915;SDS011;39827;49.652;18.770;2023-03-11T12:36:49;525.90;;;483.83;;
53915;SDS011;39827;49.652;18.770;2023-03-11T12:39:21;403.65;;;371.42;;
53915;SDS011;39827;49.652;18.770;2023-03-11T12:41:47;473.60;;;434.75;;
53915;SDS011;39827;49.652;18.770;2023-03-11T12:49:22;492.52;;;448.67;;
53915;SDS011;39827;49.652;18.770;2023-03-11T12:51:59;377.08;;;347.50;;
53915;SDS011;39827;49.652;18.770;2023-03-11T12:54:40;411.20;;;378.23;;
53915;SDS011;39827;49.652;18.770;2023-03-11T13:08:22;459.63;;;422.98;;
53915;SDS011;39827;49.652;18.770;2023-03-11T13:10:50;436.45;;;401.98;;
53915;SDS011;39827;49.652;18.770;2023-03-11T13:13:30;799.08;;;738.97;;
53915;SDS011;39827;49.652;18.770;2023-03-11T13:18:48;654.78;;;605.58;;
53915;SDS011;39827;49.652;18.770;2023-03-11T13:42:48;370.25;;;343.83;;
53915;SDS011;39827;49.652;18.770;2023-03-11T13:47:51;426.05;;;391.02;;
53915;SDS011;39827;49.652;18.770;2023-03-11T13:50:31;420.25;;;384.60;;
53915;SDS011;39827;49.652;18.770;2023-03-11T13:53:01;396.77;;;365.40;;
53915;SDS011;39827;49.652;18.770;2023-03-11T13:55:39;347.48;;;320.52;;
53915;SDS011;39827;49.652;18.770;2023-03-11T13:58:22;407.35;;;374.52;;
53915;SDS011;39827;49.652;18.770;2023-03-11T14:00:55;336.63;;;311.10;;
53915;SDS011;39827;49.652;18.770;2023-03-11T14:03:25;340.10;;;312.73;;
53915;SDS011;39827;49.652;18.770;2023-03-11T14:05:57;344.88;;;318.33;;
53915;SDS011;39827;49.652;18.770;2023-03-11T14:08:27;360.48;;;332.35;;
53915;SDS011;39827;49.652;18.770;2023-03-11T14:13:28;384.67;;;355.03;;
53915;SDS011;39827;49.652;18.770;2023-03-11T14:16:02;399.42;;;368.27;;
53915;SDS011;39827;49.652;18.770;2023-03-11T14:23:44;560.00;;;516.50;;
53915;SDS011;39827;49.652;18.770;2023-03-11T14:26:16;650.10;;;598.92;;
53915;SDS011;39827;49.652;18.770;2023-03-11T14:28:45;638.13;;;588.95;;
53915;SDS011;39827;49.652;18.770;2023-03-11T14:34:31;751.75;;;695.00;;
53915;SDS011;39827;49.652;18.770;2023-03-11T14:36:41;718.47;;;663.90;;
53915;SDS011;39827;49.652;18.770;2023-03-11T14:49:57;863.58;;;797.85;;
53915;SDS011;39827;49.652;18.770;2023-03-11T14:54:58;865.05;;;798.20;;
53915;SDS011;39827;49.652;18.770;2023-03-11T14:59:51;888.47;;;819.83;;
53915;SDS011;39827;49.652;18.770;2023-03-11T15:05:18;779.40;;;719.95;;
53915;SDS011;39827;49.652;18.770;2023-03-11T15:07:48;809.80;;;748.03;;
53915;SDS011;39827;49.652;18.770;2023-03-11T15:10:21;697.45;;;645.03;;
53915;SDS011;39827;49.652;18.770;2023-03-11T15:12:46;695.17;;;643.10;;
53915;SDS011;39827;49.652;18.770;2023-03-11T15:15:31;778.92;;;719.58;;
53915;SDS011;39827;49.652;18.770;2023-03-11T15:17:58;682.33;;;630.70;;
53915;SDS011;39827;49.652;18.770;2023-03-11T15:20:27;716.42;;;662.13;;
53915;SDS011;39827;49.652;18.770;2023-03-11T15:22:59;610.30;;;563.63;;
53915;SDS011;39827;49.652;18.770;2023-03-11T15:25:28;599.83;;;553.15;;
53915;SDS011;39827;49.652;18.770;2023-03-11T15:27:59;556.13;;;512.78;;
53915;SDS011;39827;49.652;18.770;2023-03-11T15:33:42;658.35;;;608.85;;
53915;SDS011;39827;49.652;18.770;2023-03-11T15:39:13;583.88;;;538.50;;
53915;SDS011;39827;49.652;18.770;2023-03-11T15:41:39;689.35;;;637.15;;
53915;SDS011;39827;49.652;18.770;2023-03-11T15:44:16;608.55;;;561.67;;
53915;SDS011;39827;49.652;18.770;2023-03-11T15:46:48;612.67;;;565.33;;
53915;SDS011;39827;49.652;18.770;2023-03-11T15:49:13;555.28;;;512.83;;
53915;SDS011;39827;49.652;18.770;2023-03-11T15:51:39;539.55;;;498.35;;
53915;SDS011;39827;49.652;18.770;2023-03-11T15:54:04;515.97;;;477.92;;
53915;SDS011;39827;49.652;18.770;2023-03-11T15:56:29;620.35;;;574.05;;
53915;SDS011;39827;49.652;18.770;2023-03-11T15:58:57;646.63;;;597.67;;
53915;SDS011;39827;49.652;18.770;2023-03-11T16:01:23;656.42;;;607.60;;
53915;SDS011;39827;49.652;18.770;2023-03-11T16:03:52;611.72;;;565.53;;
53915;SDS011;39827;49.652;18.770;2023-03-11T16:06:19;600.72;;;555.42;;
53915;SDS011;39827;49.652;18.770;2023-03-11T16:08:46;592.45;;;547.15;;
53915;SDS011;39827;49.652;18.770;2023-03-11T16:11:11;525.92;;;486.45;;
53915;SDS011;39827;49.652;18.770;2023-03-11T16:13:37;561.65;;;518.85;;
53915;SDS011;39827;49.652;18.770;2023-03-11T16:16:02;631.50;;;583.33;;